PWSweather.com
Personal Weather Stations
Station Observations
EMMBROOK1
Emmbrook, WokinghamGB

EmmbrookWokinghamGB

Lat: 51.42698, Lon: -0.850575

Elevation: 144

Station Type: WH1081

http://www.wokinghamweather.co.uk

Latest ConditionsUpdated 6:30:01 PM GMT Monday, Jul 16, 2018
Currently Today's Max Today's Min Today's Average
Temperature 77.4°F25.2°C 83.5°F28.6°C 56.3°F13.5°C 71.1°F21.7°C
Dew Point 53.2°F11.8°C 57.8°F14.3°C 48.1°F8.9°C 53.3°F11.8°C
Winds 3.4 mph WSW5.5 kmh WSW 6.8 mph -10.9 kmh - - 2.8 mph 4.5 kmh
Wind Gusts 6.9 mph11.1 kmh 13.6 mph21.9 kmh - -
Humidity 43% 90% 31% 58%
Pressure 29.90 in1012.5 mb 29.99 in1015.6 mb 29.89 in1012.2 mb -
Hour Temp Dew Point Humidity Winds Wind Gusts Pressure Precip Precip Rate Daily Precip Total
06:30 PM 77.4°F25.2°C 53.2°F11.8°C 43% 3.4 mph WSW5.5 kmh WSW 6.9 mph11.1 kmh 29.90 in1012.5 mb 0.00 in0.0 mm 0.00 in0.0 mm 0.00 in0.0 mm
06:15 PM 78.4°F25.8°C 52.8°F11.6°C 41% 3.0 mph SW4.8 kmh SW 8.3 mph13.4 kmh 29.90 in1012.5 mb 0.00 in0.0 mm 0.00 in0.0 mm 0.00 in0.0 mm
06:00 PM 79.5°F26.4°C 51.0°F10.6°C 37% 4.9 mph SW7.9 kmh SW 7.6 mph12.2 kmh 29.89 in1012.2 mb 0.00 in0.0 mm 0.00 in0.0 mm 0.00 in0.0 mm
05:45 PM 81.9°F27.7°C 51.6°F10.9°C 35% 5.3 mph S8.5 kmh S 8.3 mph13.4 kmh 29.89 in1012.2 mb 0.00 in0.0 mm 0.00 in0.0 mm 0.00 in0.0 mm
05:30 PM 81.7°F27.6°C 49.8°F9.9°C 33% 5.6 mph WSW9.0 kmh WSW 7.6 mph12.2 kmh 29.89 in1012.2 mb 0.00 in0.0 mm 0.00 in0.0 mm 0.00 in0.0 mm
05:15 PM 82.2°F27.9°C 48.6°F9.2°C 31% 6.3 mph WSW10.1 kmh WSW 9.8 mph15.8 kmh 29.89 in1012.2 mb 0.00 in0.0 mm 0.00 in0.0 mm 0.00 in0.0 mm
05:00 PM 82.0°F27.8°C 49.3°F9.6°C 32% 6.0 mph SW9.7 kmh SW 9.8 mph15.8 kmh 29.89 in1012.2 mb 0.00 in0.0 mm 0.00 in0.0 mm 0.00 in0.0 mm
04:45 PM 82.0°F27.8°C 48.5°F9.2°C 31% 5.8 mph SW9.3 kmh SW 10.7 mph17.2 kmh 29.89 in1012.2 mb 0.00 in0.0 mm 0.00 in0.0 mm 0.00 in0.0 mm
04:30 PM 82.0°F27.8°C 52.5°F11.4°C 36% 5.3 mph SW8.5 kmh SW 8.3 mph13.4 kmh 29.89 in1012.2 mb 0.00 in0.0 mm 0.00 in0.0 mm 0.00 in0.0 mm
04:15 PM 81.3°F27.4°C 53.3°F11.8°C 38% 5.5 mph WSW8.9 kmh WSW 8.3 mph13.4 kmh 29.90 in1012.5 mb 0.00 in0.0 mm 0.00 in0.0 mm 0.00 in0.0 mm
04:00 PM 82.0°F27.8°C 54.0°F12.2°C 38% 6.6 mph SW10.6 kmh SW 9.8 mph15.8 kmh 29.90 in1012.5 mb 0.00 in0.0 mm 0.00 in0.0 mm 0.00 in0.0 mm
03:45 PM 80.4°F26.9°C 55.9°F13.3°C 43% 4.5 mph SW7.2 kmh SW 7.6 mph12.2 kmh 29.91 in1012.9 mb 0.00 in0.0 mm 0.00 in0.0 mm 0.00 in0.0 mm
03:30 PM 80.6°F27.0°C 54.1°F12.3°C 40% 4.8 mph WSW7.7 kmh WSW 7.6 mph12.2 kmh 29.91 in1012.9 mb 0.00 in0.0 mm 0.00 in0.0 mm 0.00 in0.0 mm
03:15 PM 82.0°F27.8°C 55.4°F13.0°C 40% 6.8 mph SSW10.9 kmh SSW 13.6 mph21.9 kmh 29.91 in1012.9 mb 0.00 in0.0 mm 0.00 in0.0 mm 0.00 in0.0 mm
03:00 PM 81.0°F27.2°C 54.4°F12.4°C 40% 5.7 mph WSW9.2 kmh WSW 7.6 mph12.2 kmh 29.91 in1012.9 mb 0.00 in0.0 mm 0.00 in0.0 mm 0.00 in0.0 mm
02:45 PM 81.0°F27.2°C 53.0°F11.7°C 38% 4.5 mph W7.2 kmh W 6.9 mph11.1 kmh 29.91 in1012.9 mb 0.00 in0.0 mm 0.00 in0.0 mm 0.00 in0.0 mm
02:30 PM 81.3°F27.4°C 53.3°F11.8°C 38% 5.7 mph WSW9.2 kmh WSW 8.3 mph13.4 kmh 29.91 in1012.9 mb 0.00 in0.0 mm 0.00 in0.0 mm 0.00 in0.0 mm
02:15 PM 82.0°F27.8°C 54.7°F12.6°C 39% 5.8 mph WSW9.3 kmh WSW 8.3 mph13.4 kmh 29.91 in1012.9 mb 0.00 in0.0 mm 0.00 in0.0 mm 0.00 in0.0 mm
02:00 PM 80.8°F27.1°C 54.2°F12.3°C 40% 6.1 mph SW9.8 kmh SW 8.3 mph13.4 kmh 29.92 in1013.2 mb 0.00 in0.0 mm 0.00 in0.0 mm 0.00 in0.0 mm
01:45 PM 80.8°F27.1°C 54.2°F12.3°C 40% 6.0 mph SW9.7 kmh SW 9.8 mph15.8 kmh 29.92 in1013.2 mb 0.00 in0.0 mm 0.00 in0.0 mm 0.00 in0.0 mm
01:30 PM 79.7°F26.5°C 52.6°F11.4°C 39% 5.1 mph NW8.2 kmh NW 11.4 mph18.3 kmh 29.93 in1013.5 mb 0.00 in0.0 mm 0.00 in0.0 mm 0.00 in0.0 mm
01:15 PM 80.2°F26.8°C 49.4°F9.7°C 34% 5.3 mph WSW8.5 kmh WSW 6.9 mph11.1 kmh 29.93 in1013.5 mb 0.00 in0.0 mm 0.00 in0.0 mm 0.00 in0.0 mm
01:00 PM 81.7°F27.6°C 48.1°F8.9°C 31% 6.4 mph WSW10.3 kmh WSW 9.2 mph14.8 kmh 29.93 in1013.5 mb 0.00 in0.0 mm 0.00 in0.0 mm 0.00 in0.0 mm
12:45 PM 83.5°F28.6°C 51.4°F10.8°C 33% 3.2 mph SW5.1 kmh SW 5.4 mph8.7 kmh 29.93 in1013.5 mb 0.00 in0.0 mm 0.00 in0.0 mm 0.00 in0.0 mm
12:30 PM 82.2°F27.9°C 50.3°F10.2°C 33% 4.9 mph SW7.9 kmh SW 7.6 mph12.2 kmh 29.93 in1013.5 mb 0.00 in0.0 mm 0.00 in0.0 mm 0.00 in0.0 mm
12:15 PM 83.5°F28.6°C 50.6°F10.3°C 32% 6.7 mph WSW10.8 kmh WSW 9.2 mph14.8 kmh 29.93 in1013.5 mb 0.00 in0.0 mm 0.00 in0.0 mm 0.00 in0.0 mm
12:00 PM 82.9°F28.3°C 52.5°F11.4°C 35% 4.9 mph SSE7.9 kmh SSE 8.3 mph13.4 kmh 29.94 in1013.9 mb 0.00 in0.0 mm 0.00 in0.0 mm 0.00 in0.0 mm
11:45 AM 81.1°F27.3°C 50.2°F10.1°C 34% 5.6 mph SW9.0 kmh SW 8.3 mph13.4 kmh 29.94 in1013.9 mb 0.00 in0.0 mm 0.00 in0.0 mm 0.00 in0.0 mm
11:30 AM 80.4°F26.9°C 49.5°F9.7°C 34% 5.7 mph WSW9.2 kmh WSW 8.3 mph13.4 kmh 29.95 in1014.2 mb 0.00 in0.0 mm 0.00 in0.0 mm 0.00 in0.0 mm
11:15 AM 81.0°F27.2°C 49.2°F9.6°C 33% 2.9 mph SSE4.7 kmh SSE 5.4 mph8.7 kmh 29.95 in1014.2 mb 0.00 in0.0 mm 0.00 in0.0 mm 0.00 in0.0 mm
11:00 AM 80.8°F27.1°C 52.8°F11.6°C 38% 4.5 mph SW7.2 kmh SW 9.2 mph14.8 kmh 29.96 in1014.6 mb 0.00 in0.0 mm 0.00 in0.0 mm 0.00 in0.0 mm
10:45 AM 80.1°F26.7°C 49.2°F9.6°C 34% 4.2 mph SSW6.8 kmh SSW 6.9 mph11.1 kmh 29.96 in1014.6 mb 0.00 in0.0 mm 0.00 in0.0 mm 0.00 in0.0 mm
10:30 AM 79.3°F26.3°C 52.3°F11.3°C 39% 4.6 mph SW7.4 kmh SW 6.9 mph11.1 kmh 29.96 in1014.6 mb 0.00 in0.0 mm 0.00 in0.0 mm 0.00 in0.0 mm
10:15 AM 79.0°F26.1°C 54.6°F12.6°C 43% 3.7 mph NW6.0 kmh NW 6.9 mph11.1 kmh 29.96 in1014.6 mb 0.00 in0.0 mm 0.00 in0.0 mm 0.00 in0.0 mm
10:00 AM 78.4°F25.8°C 55.4°F13.0°C 45% 3.3 mph SW5.3 kmh SW 6.0 mph9.7 kmh 29.96 in1014.6 mb 0.00 in0.0 mm 0.00 in0.0 mm 0.00 in0.0 mm
09:45 AM 76.5°F24.7°C 57.0°F13.9°C 51% 4.1 mph S6.6 kmh S 6.0 mph9.7 kmh 29.97 in1014.9 mb 0.00 in0.0 mm 0.00 in0.0 mm 0.00 in0.0 mm
09:30 AM 75.0°F23.9°C 57.8°F14.3°C 55% 3.2 mph SW5.1 kmh SW 6.0 mph9.7 kmh 29.97 in1014.9 mb 0.00 in0.0 mm 0.00 in0.0 mm 0.00 in0.0 mm
09:15 AM 73.4°F23.0°C 56.8°F13.8°C 56% 2.5 mph WSW4.0 kmh WSW 6.0 mph9.7 kmh 29.97 in1014.9 mb 0.00 in0.0 mm 0.00 in0.0 mm 0.00 in0.0 mm
09:00 AM 73.4°F23.0°C 57.3°F14.1°C 57% 2.6 mph WSW4.2 kmh WSW 4.5 mph7.2 kmh 29.97 in1014.9 mb 0.00 in0.0 mm 0.00 in0.0 mm 0.00 in0.0 mm
08:45 AM 73.4°F23.0°C 56.8°F13.8°C 56% 2.7 mph SW4.3 kmh SW 5.4 mph8.7 kmh 29.97 in1014.9 mb 0.00 in0.0 mm 0.00 in0.0 mm 0.00 in0.0 mm
08:30 AM 72.3°F22.4°C 57.7°F14.3°C 60% 2.6 mph SW4.2 kmh SW 3.8 mph6.1 kmh 29.97 in1014.9 mb 0.00 in0.0 mm 0.00 in0.0 mm 0.00 in0.0 mm
08:15 AM 70.3°F21.3°C 57.2°F14.0°C 63% 2.0 mph SW3.2 kmh SW 3.1 mph5.0 kmh 29.97 in1014.9 mb 0.00 in0.0 mm 0.00 in0.0 mm 0.00 in0.0 mm
08:00 AM 68.7°F20.4°C 57.3°F14.1°C 67% 1.6 mph SE2.6 kmh SE 2.2 mph3.5 kmh 29.97 in1014.9 mb 0.00 in0.0 mm 0.00 in0.0 mm 0.00 in0.0 mm
07:45 AM 67.3°F19.6°C 57.6°F14.2°C 71% 2.0 mph WSW3.2 kmh WSW 3.1 mph5.0 kmh 29.97 in1014.9 mb 0.00 in0.0 mm 0.00 in0.0 mm 0.00 in0.0 mm
07:30 AM 66.2°F19.0°C 57.3°F14.1°C 73% 1.7 mph SW2.7 kmh SW 3.8 mph6.1 kmh 29.97 in1014.9 mb 0.00 in0.0 mm 0.00 in0.0 mm 0.00 in0.0 mm
07:15 AM 65.1°F18.4°C 57.0°F13.9°C 75% 1.9 mph SW3.1 kmh SW 2.2 mph3.5 kmh 29.98 in1015.2 mb 0.00 in0.0 mm 0.00 in0.0 mm 0.00 in0.0 mm
07:00 AM 64.2°F17.9°C 56.1°F13.4°C 75% 1.6 mph N2.6 kmh N 3.8 mph6.1 kmh 29.98 in1015.2 mb 0.00 in0.0 mm 0.00 in0.0 mm 0.00 in0.0 mm
06:45 AM 63.1°F17.3°C 56.2°F13.4°C 78% 1.9 mph W3.1 kmh W 3.8 mph6.1 kmh 29.98 in1015.2 mb 0.00 in0.0 mm 0.00 in0.0 mm 0.00 in0.0 mm
06:30 AM 62.1°F16.7°C 56.2°F13.4°C 81% Calm Calm -- 29.98 in1015.2 mb 0.00 in0.0 mm 0.00 in0.0 mm 0.00 in0.0 mm
06:15 AM 61.3°F16.3°C 56.5°F13.6°C 84% Calm Calm -- 29.98 in1015.2 mb 0.00 in0.0 mm 0.00 in0.0 mm 0.00 in0.0 mm
06:00 AM 59.9°F15.5°C 56.4°F13.6°C 88% Calm Calm -- 29.98 in1015.2 mb 0.00 in0.0 mm 0.00 in0.0 mm 0.00 in0.0 mm
05:45 AM 58.5°F14.7°C 55.5°F13.1°C 90% Calm Calm -- 29.98 in1015.2 mb 0.00 in0.0 mm 0.00 in0.0 mm 0.00 in0.0 mm
05:30 AM 57.6°F14.2°C 54.7°F12.6°C 90% Calm Calm -- 29.98 in1015.2 mb 0.00 in0.0 mm 0.00 in0.0 mm 0.00 in0.0 mm
05:15 AM 56.8°F13.8°C 53.9°F12.2°C 90% Calm Calm -- 29.98 in1015.2 mb 0.00 in0.0 mm 0.00 in0.0 mm 0.00 in0.0 mm
05:00 AM 56.5°F13.6°C 53.3°F11.8°C 89% Calm Calm -- 29.98 in1015.2 mb 0.00 in0.0 mm 0.00 in0.0 mm 0.00 in0.0 mm
04:45 AM 56.3°F13.5°C 52.8°F11.6°C 88% Calm Calm -- 29.98 in1015.2 mb 0.00 in0.0 mm 0.00 in0.0 mm 0.00 in0.0 mm
04:30 AM 56.5°F13.6°C 53.0°F11.7°C 88% Calm Calm -- 29.98 in1015.2 mb 0.00 in0.0 mm 0.00 in0.0 mm 0.00 in0.0 mm
04:15 AM 56.7°F13.7°C 52.8°F11.6°C 87% Calm Calm -- 29.98 in1015.2 mb 0.00 in0.0 mm 0.00 in0.0 mm 0.00 in0.0 mm
04:00 AM 56.7°F13.7°C 52.8°F11.6°C 87% Calm Calm -- 29.98 in1015.2 mb 0.00 in0.0 mm 0.00 in0.0 mm 0.00 in0.0 mm
03:45 AM 56.8°F13.8°C 52.7°F11.5°C 86% Calm Calm -- 29.98 in1015.2 mb 0.00 in0.0 mm 0.00 in0.0 mm 0.00 in0.0 mm
03:30 AM 57.0°F13.9°C 52.6°F11.4°C 85% Calm Calm -- 29.98 in1015.2 mb 0.00 in0.0 mm 0.00 in0.0 mm 0.00 in0.0 mm
03:15 AM 57.2°F14.0°C 52.1°F11.2°C 83% Calm Calm -- 29.98 in1015.2 mb 0.00 in0.0 mm 0.00 in0.0 mm 0.00 in0.0 mm
03:00 AM 57.6°F14.2°C 52.4°F11.3°C 83% Calm Calm -- 29.98 in1015.2 mb 0.00 in0.0 mm 0.00 in0.0 mm 0.00 in0.0 mm
02:45 AM 57.9°F14.4°C 52.5°F11.4°C 82% Calm Calm -- 29.98 in1015.2 mb 0.00 in0.0 mm 0.00 in0.0 mm 0.00 in0.0 mm
02:30 AM 58.1°F14.5°C 52.6°F11.4°C 82% Calm Calm -- 29.98 in1015.2 mb 0.00 in0.0 mm 0.00 in0.0 mm 0.00 in0.0 mm
02:15 AM 58.6°F14.8°C 52.8°F11.6°C 81% Calm Calm -- 29.98 in1015.2 mb 0.00 in0.0 mm 0.00 in0.0 mm 0.00 in0.0 mm
02:00 AM 59.0°F15.0°C 52.5°F11.4°C 79% Calm Calm -- 29.98 in1015.2 mb 0.00 in0.0 mm 0.00 in0.0 mm 0.00 in0.0 mm
01:45 AM 59.4°F15.2°C 52.2°F11.2°C 77% Calm Calm -- 29.98 in1015.2 mb 0.00 in0.0 mm 0.00 in0.0 mm 0.00 in0.0 mm
01:30 AM 59.7°F15.4°C 52.2°F11.2°C 76% Calm Calm -- 29.98 in1015.2 mb 0.00 in0.0 mm 0.00 in0.0 mm 0.00 in0.0 mm
01:15 AM 60.1°F15.6°C 52.1°F11.2°C 75% Calm Calm -- 29.99 in1015.6 mb 0.00 in0.0 mm 0.00 in0.0 mm 0.00 in0.0 mm
01:00 AM 60.6°F15.9°C 52.3°F11.3°C 74% Calm Calm -- 29.99 in1015.6 mb 0.00 in0.0 mm 0.00 in0.0 mm 0.00 in0.0 mm
12:45 AM 61.2°F16.2°C 52.1°F11.2°C 72% Calm Calm -- 29.99 in1015.6 mb 0.00 in0.0 mm 0.00 in0.0 mm 0.00 in0.0 mm
12:30 AM 61.5°F16.4°C 52.0°F11.1°C 71% Calm Calm -- 29.99 in1015.6 mb 0.00 in0.0 mm 0.00 in0.0 mm 0.00 in0.0 mm
12:15 AM 62.4°F16.9°C 52.9°F11.6°C 71% Calm Calm -- 29.99 in1015.6 mb 0.00 in0.0 mm 0.00 in0.0 mm 0.00 in0.0 mm
12:00 AM 62.8°F17.1°C 52.5°F11.4°C 69% Calm Calm -- 29.99 in1015.6 mb 0.00 in0.0 mm 0.00 in0.0 mm 0.00 in0.0 mm